createdAt,value
2022-11-08T00:02:06.263Z,99.90
2022-11-08T00:04:34.428Z,99.90
2022-11-08T00:07:19.566Z,99.90
2022-11-08T00:10:04.932Z,99.90
2022-11-08T00:12:50.243Z,99.90
2022-11-08T00:15:17.028Z,99.90
2022-11-08T00:17:43.713Z,99.90
2022-11-08T00:20:11.232Z,99.90
2022-11-08T00:22:37.909Z,99.90
2022-11-08T00:25:04.882Z,99.90
2022-11-08T00:27:31.541Z,99.90
2022-11-08T00:29:58.185Z,99.90
2022-11-08T00:32:26.342Z,99.90
2022-11-08T00:34:53.808Z,99.90
2022-11-08T00:37:21.708Z,99.90
2022-11-08T00:39:48.949Z,99.90
2022-11-08T00:42:15.814Z,99.90
2022-11-08T00:44:42.550Z,99.90
2022-11-08T00:47:09.391Z,99.90
2022-11-08T00:49:36.186Z,99.90
2022-11-08T00:52:03.010Z,99.90
2022-11-08T00:54:29.742Z,99.90
2022-11-08T00:56:56.370Z,99.90
2022-11-08T00:59:23.045Z,99.90
2022-11-08T01:01:49.864Z,99.90
2022-11-08T01:04:18.654Z,99.90
2022-11-08T01:06:45.469Z,99.90
2022-11-08T01:09:12.254Z,99.90
2022-11-08T01:11:40.241Z,99.90
2022-11-08T01:14:07.036Z,99.90
2022-11-08T01:16:34.773Z,99.90
2022-11-08T01:19:02.308Z,99.90
2022-11-08T01:21:29.783Z,99.90
2022-11-08T01:23:56.686Z,99.90
2022-11-08T01:26:26.489Z,99.90
2022-11-08T01:28:54.385Z,99.90
2022-11-08T01:31:24.366Z,99.90
2022-11-08T01:33:52.075Z,99.90
2022-11-08T01:36:21.588Z,99.90
2022-11-08T01:38:48.843Z,99.90
2022-11-08T01:41:18.942Z,99.90
2022-11-08T01:43:56.511Z,99.90
2022-11-08T01:46:33.403Z,99.90
2022-11-08T01:49:32.484Z,99.90
2022-11-08T01:52:16.848Z,99.90
2022-11-08T01:54:52.132Z,99.90
2022-11-08T01:57:23.333Z,99.90
2022-11-08T01:59:52.948Z,99.90
2022-11-08T02:02:20.806Z,99.90
2022-11-08T02:04:47.733Z,99.90
2022-11-08T02:07:15.772Z,99.90
2022-11-08T02:09:44.698Z,99.90
2022-11-08T02:12:13.558Z,99.90
2022-11-08T02:14:40.265Z,99.90
2022-11-08T02:17:07.859Z,99.90
2022-11-08T02:19:39.097Z,99.90
2022-11-08T02:22:27.896Z,99.90
2022-11-08T02:24:55.066Z,99.90
2022-11-08T02:27:21.709Z,99.90
2022-11-08T02:29:53.512Z,99.90
2022-11-08T02:32:20.435Z,99.90
2022-11-08T02:34:54.973Z,99.90
2022-11-08T02:37:23.340Z,99.90
2022-11-08T02:39:50.003Z,99.90
2022-11-08T02:42:19.239Z,99.90
2022-11-08T02:44:49.231Z,99.90
2022-11-08T02:47:16.089Z,99.90
2022-11-08T02:49:43.411Z,99.90
2022-11-08T02:52:10.696Z,99.90
2022-11-08T02:54:37.302Z,99.90
2022-11-08T02:57:04.003Z,99.90
2022-11-08T02:59:30.700Z,99.90
2022-11-08T03:01:57.530Z,99.90
2022-11-08T03:04:24.284Z,99.90
2022-11-08T03:06:50.915Z,99.90
2022-11-08T03:09:17.571Z,99.90
2022-11-08T03:11:44.234Z,99.90
2022-11-08T03:14:10.909Z,99.90
2022-11-08T03:16:37.658Z,99.90
2022-11-08T03:19:04.393Z,99.90
2022-11-08T03:21:31.134Z,99.90
2022-11-08T03:23:57.855Z,99.90
2022-11-08T03:26:24.496Z,99.90
2022-11-08T03:28:51.163Z,99.90
2022-11-08T03:31:17.827Z,99.90
2022-11-08T03:33:44.612Z,99.90
2022-11-08T03:36:11.295Z,99.90
2022-11-08T03:38:37.957Z,99.90
2022-11-08T03:41:04.776Z,99.90
2022-11-08T03:43:31.436Z,99.90
2022-11-08T03:45:58.087Z,99.90
2022-11-08T03:48:24.817Z,99.90
2022-11-08T03:50:51.924Z,99.90
2022-11-08T03:53:18.958Z,99.90
2022-11-08T03:55:45.628Z,99.90
2022-11-08T03:58:12.556Z,99.90
2022-11-08T04:00:39.578Z,99.90
2022-11-08T04:03:06.271Z,99.90
2022-11-08T04:05:33.551Z,99.90
2022-11-08T04:08:01.622Z,99.90
2022-11-08T04:10:28.702Z,99.90
2022-11-08T04:13:14.124Z,99.90
2022-11-08T04:15:40.781Z,99.90
2022-11-08T04:18:25.954Z,99.90
2022-11-08T04:21:11.492Z,99.90
2022-11-08T04:23:38.585Z,99.90
2022-11-08T04:26:07.893Z,99.90
2022-11-08T04:28:36.813Z,99.90
2022-11-08T04:31:07.082Z,99.90
2022-11-08T04:33:33.985Z,99.90
2022-11-08T04:36:09.925Z,99.90
2022-11-08T04:38:36.732Z,99.90
2022-11-08T04:41:04.310Z,99.90
2022-11-08T04:43:31.707Z,99.90
2022-11-08T04:46:09.879Z,99.90
2022-11-08T04:48:37.027Z,99.90
2022-11-08T04:51:16.339Z,99.90
2022-11-08T04:53:43.218Z,99.90
2022-11-08T04:56:12.352Z,99.90
2022-11-08T04:58:44.764Z,99.90
2022-11-08T05:01:14.387Z,99.90
2022-11-08T05:03:41.418Z,99.90
2022-11-08T05:06:12.481Z,99.90
2022-11-08T05:08:39.753Z,99.90
2022-11-08T05:11:15.084Z,99.90
2022-11-08T05:13:42.331Z,99.90
2022-11-08T05:16:22.544Z,99.90
2022-11-08T05:18:49.797Z,99.90
2022-11-08T05:21:37.117Z,99.90
2022-11-08T05:24:05.986Z,99.90
2022-11-08T05:26:37.937Z,99.90
2022-11-08T05:29:05.602Z,99.90
2022-11-08T05:31:32.580Z,99.90
2022-11-08T05:34:00.699Z,99.90
2022-11-08T05:36:28.080Z,99.90
2022-11-08T05:38:55.717Z,99.90
2022-11-08T05:41:24.603Z,99.90
2022-11-08T05:43:53.281Z,99.90
2022-11-08T05:46:21.957Z,99.90
2022-11-08T05:48:48.937Z,99.90
2022-11-08T05:51:17.361Z,99.90
2022-11-08T05:53:44.206Z,99.90
2022-11-08T05:56:10.896Z,99.90
2022-11-08T05:58:37.588Z,99.90
2022-11-08T06:01:10.461Z,99.90
2022-11-08T06:03:37.989Z,99.90
2022-11-08T06:06:10.683Z,99.90
2022-11-08T06:08:38.235Z,99.90
2022-11-08T06:11:06.608Z,99.90
2022-11-08T06:13:34.342Z,99.90
2022-11-08T06:16:05.882Z,99.90
2022-11-08T06:18:34.132Z,99.90
2022-11-08T06:21:05.370Z,99.90
2022-11-08T06:23:32.343Z,99.90
2022-11-08T06:25:59.818Z,99.90
2022-11-08T06:28:27.228Z,99.90
2022-11-08T06:30:54.098Z,99.90
2022-11-08T06:33:22.005Z,99.90
2022-11-08T06:35:48.896Z,99.90
2022-11-08T06:38:15.550Z,99.90
2022-11-08T06:40:42.684Z,99.90
2022-11-08T06:43:15.071Z,99.90
2022-11-08T06:45:46.010Z,99.90
2022-11-08T06:48:12.697Z,99.90
2022-11-08T06:50:39.464Z,99.90
2022-11-08T06:53:07.926Z,99.90
2022-11-08T06:55:35.635Z,99.90
2022-11-08T06:58:03.771Z,99.90
2022-11-08T07:00:30.909Z,99.90
2022-11-08T07:03:00.108Z,99.90
2022-11-08T07:05:29.001Z,99.90
2022-11-08T07:07:58.185Z,99.90
2022-11-08T07:10:27.422Z,99.90
2022-11-08T07:13:03.223Z,99.90
2022-11-08T07:15:30.644Z,99.90
2022-11-08T07:18:01.265Z,99.90
2022-11-08T07:20:28.081Z,99.90
2022-11-08T07:22:56.147Z,99.90
2022-11-08T07:25:23.803Z,99.90
2022-11-08T07:27:50.603Z,99.90
2022-11-08T07:30:17.462Z,99.90
2022-11-08T07:32:44.081Z,99.90
2022-11-08T07:35:10.723Z,99.90
2022-11-08T07:37:37.418Z,99.90
2022-11-08T07:40:04.593Z,99.90
2022-11-08T07:42:56.896Z,99.90
2022-11-08T07:45:18.047Z,99.90
2022-11-08T07:47:44.700Z,99.90
2022-11-08T07:50:12.730Z,99.90
2022-11-08T07:52:40.925Z,99.90
2022-11-08T07:55:08.287Z,99.90
2022-11-08T07:57:34.929Z,99.90
2022-11-08T08:00:07.247Z,99.90
2022-11-08T08:02:34.464Z,99.90
2022-11-08T08:05:01.094Z,99.90
2022-11-08T08:07:27.724Z,99.90
2022-11-08T08:09:54.671Z,99.90
2022-11-08T08:12:21.487Z,99.90
2022-11-08T08:14:48.152Z,99.90
2022-11-08T08:17:14.809Z,99.90
2022-11-08T08:19:41.465Z,99.90
2022-11-08T08:22:08.261Z,99.90
2022-11-08T08:24:34.900Z,99.90
2022-11-08T08:27:01.568Z,99.90
2022-11-08T08:29:31.132Z,99.90
2022-11-08T08:31:57.836Z,99.90
2022-11-08T08:34:24.466Z,99.90
2022-11-08T08:36:51.117Z,99.90
2022-11-08T08:39:17.818Z,99.90
2022-11-08T08:41:44.508Z,99.90
2022-11-08T08:44:11.249Z,99.90
2022-11-08T08:46:37.906Z,99.90
2022-11-08T08:49:04.575Z,99.90
2022-11-08T08:51:31.288Z,99.90
2022-11-08T08:53:58.784Z,99.90
2022-11-08T08:56:25.455Z,99.90
2022-11-08T09:01:38.903Z,99.90
2022-11-08T09:04:05.704Z,99.90
2022-11-08T09:06:32.629Z,99.90
2022-11-08T09:08:59.355Z,99.90
2022-11-08T09:11:26.012Z,99.90
2022-11-08T09:13:52.671Z,99.90
2022-11-08T09:16:19.733Z,99.90
2022-11-08T09:18:46.506Z,99.90
2022-11-08T09:21:13.283Z,99.90
2022-11-08T09:23:42.267Z,99.90
2022-11-08T09:26:10.378Z,99.90
2022-11-08T09:28:37.552Z,99.90
2022-11-08T09:31:06.131Z,99.90
2022-11-08T09:33:33.488Z,99.90
2022-11-08T09:36:01.547Z,99.90
2022-11-08T09:38:28.535Z,99.90
2022-11-08T09:41:22.333Z,99.90
2022-11-08T09:44:10.448Z,99.90
2022-11-08T09:46:50.836Z,99.90
2022-11-08T09:49:22.514Z,99.90
2022-11-08T09:51:49.777Z,99.90
2022-11-08T09:54:31.438Z,99.90
2022-11-08T09:56:58.585Z,99.90
2022-11-08T09:59:42.870Z,99.90
2022-11-08T10:02:18.482Z,99.90
2022-11-08T10:04:51.918Z,99.90
2022-11-08T10:07:44.414Z,99.90
2022-11-08T10:10:30.270Z,99.90
2022-11-08T10:13:15.132Z,99.90
2022-11-08T10:16:02.242Z,99.90
2022-11-08T10:18:42.135Z,99.90
2022-11-08T10:21:22.478Z,99.90
2022-11-08T10:24:09.112Z,99.90
2022-11-08T10:26:42.581Z,99.90
2022-11-08T10:29:26.446Z,99.90
2022-11-08T10:32:03.280Z,99.90
2022-11-08T10:34:39.126Z,99.90
2022-11-08T10:37:08.628Z,99.90
2022-11-08T10:39:50.564Z,99.90
2022-11-08T10:42:43.971Z,99.90
2022-11-08T10:45:12.251Z,99.90
2022-11-08T10:47:40.228Z,99.90
2022-11-08T10:50:20.390Z,99.90
2022-11-08T10:52:58.062Z,99.90
2022-11-08T10:55:33.458Z,99.90
2022-11-08T10:58:00.589Z,99.90
2022-11-08T11:00:30.025Z,99.90
2022-11-08T11:03:00.815Z,99.90
2022-11-08T11:05:31.891Z,99.90
2022-11-08T11:08:03.320Z,99.90
2022-11-08T11:10:37.489Z,99.90
2022-11-08T11:13:09.084Z,99.90
2022-11-08T11:15:39.780Z,99.90
2022-11-08T11:18:23.686Z,99.90
2022-11-08T11:21:09.069Z,99.90
2022-11-08T11:23:58.528Z,99.90
2022-11-08T11:26:32.008Z,99.90
2022-11-08T11:29:04.728Z,99.90
2022-11-08T11:31:37.093Z,99.90
2022-11-08T11:34:19.057Z,99.90
2022-11-08T11:37:05.513Z,99.90
2022-11-08T11:39:56.089Z,99.90
2022-11-08T11:42:49.892Z,99.90
2022-11-08T11:45:35.124Z,99.90
2022-11-08T11:48:13.705Z,99.90
2022-11-08T11:50:45.371Z,99.90
2022-11-08T11:53:27.336Z,99.90
2022-11-08T11:56:09.430Z,99.90
2022-11-08T11:58:53.966Z,99.90
2022-11-08T12:01:41.829Z,99.90
2022-11-08T12:04:39.189Z,99.90
2022-11-08T12:07:24.113Z,99.90
2022-11-08T12:10:05.890Z,99.90
2022-11-08T12:12:57.596Z,99.90
2022-11-08T12:15:27.404Z,99.90
2022-11-08T12:18:02.579Z,99.90
2022-11-08T12:20:56.504Z,99.90
2022-11-08T12:23:26.126Z,99.90
2022-11-08T12:26:04.501Z,99.90
2022-11-08T12:28:31.099Z,99.90
2022-11-08T12:31:15.208Z,99.90
2022-11-08T12:33:58.222Z,99.90
2022-11-08T12:37:00.482Z,99.50
2022-11-08T12:39:36.010Z,99.30
2022-11-08T12:42:42.043Z,99.00
2022-11-08T12:45:33.286Z,96.70
2022-11-08T12:48:29.244Z,97.70
2022-11-08T12:51:01.542Z,96.10
2022-11-08T12:53:37.317Z,96.20
2022-11-08T12:56:11.055Z,96.90
2022-11-08T12:58:50.011Z,98.70
2022-11-08T13:01:18.999Z,97.70
2022-11-08T13:03:51.595Z,98.60
2022-11-08T13:06:36.913Z,98.10
2022-11-08T13:09:34.705Z,99.90
2022-11-08T13:12:19.680Z,99.30
2022-11-08T13:14:46.993Z,98.40
2022-11-08T13:17:26.527Z,98.70
2022-11-08T13:20:02.154Z,97.30
2022-11-08T13:22:31.254Z,97.90
2022-11-08T13:25:13.218Z,97.30
2022-11-08T13:27:40.921Z,98.20
2022-11-08T13:30:16.897Z,96.90
2022-11-08T13:32:43.550Z,96.40
2022-11-08T13:35:48.663Z,96.50
2022-11-08T13:38:35.320Z,96.10
2022-11-08T13:41:18.393Z,97.90
2022-11-08T13:43:46.055Z,96.10
2022-11-08T13:46:27.790Z,96.20
2022-11-08T13:49:05.269Z,96.20
2022-11-08T13:51:32.941Z,96.60
2022-11-08T13:54:03.765Z,98.70
2022-11-08T13:56:48.640Z,97.40
2022-11-08T13:59:30.793Z,97.00
2022-11-08T14:02:36.868Z,97.90
2022-11-08T14:05:24.828Z,99.50
2022-11-08T14:08:13.174Z,98.40
2022-11-08T14:10:59.430Z,99.40
2022-11-08T14:13:34.868Z,99.90
2022-11-08T14:16:06.819Z,99.90
2022-11-08T14:18:39.088Z,99.90
2022-11-08T14:21:06.795Z,99.90
2022-11-08T14:23:39.781Z,99.90
2022-11-08T14:26:17.817Z,99.90
2022-11-08T14:28:46.594Z,99.90
2022-11-08T14:31:34.151Z,99.90
2022-11-08T14:34:02.149Z,99.90
2022-11-08T14:36:34.714Z,99.90
2022-11-08T14:39:19.136Z,99.90
2022-11-08T14:41:48.091Z,99.90
2022-11-08T14:44:16.917Z,99.90
2022-11-08T14:46:43.999Z,99.90
2022-11-08T14:49:13.360Z,99.90
2022-11-08T14:51:40.892Z,99.90
2022-11-08T14:54:18.576Z,99.90
2022-11-08T14:56:46.084Z,99.90
2022-11-08T14:59:13.528Z,99.90
2022-11-08T15:01:44.126Z,99.90
2022-11-08T15:04:36.912Z,99.90
2022-11-08T15:07:09.259Z,99.90
2022-11-08T15:09:36.320Z,99.90
2022-11-08T15:12:13.913Z,99.90
2022-11-08T15:14:48.638Z,99.90
2022-11-08T15:17:35.263Z,99.90
2022-11-08T15:20:06.946Z,99.90
2022-11-08T15:22:36.210Z,99.90
2022-11-08T15:25:32.297Z,99.90
2022-11-08T15:28:14.343Z,99.90
2022-11-08T15:30:43.157Z,99.90
2022-11-08T15:33:26.784Z,99.90
2022-11-08T15:35:53.666Z,99.90
2022-11-08T15:38:40.553Z,99.90
2022-11-08T15:41:38.218Z,99.90
2022-11-08T15:44:25.828Z,99.90
2022-11-08T15:46:54.261Z,99.90
2022-11-08T15:49:26.316Z,99.90
2022-11-08T15:51:55.189Z,99.90
2022-11-08T15:54:23.648Z,99.90
2022-11-08T15:56:53.249Z,99.90
2022-11-08T15:59:23.314Z,99.90
2022-11-08T16:01:55.326Z,99.90
2022-11-08T16:04:22.240Z,99.90
2022-11-08T16:06:48.997Z,99.90
2022-11-08T16:09:15.746Z,99.90
2022-11-08T16:11:44.820Z,99.90
2022-11-08T16:14:20.097Z,99.90
2022-11-08T16:16:46.940Z,99.90
2022-11-08T16:19:21.618Z,99.90
2022-11-08T16:21:48.510Z,99.90
2022-11-08T16:24:15.868Z,99.90
2022-11-08T16:26:44.120Z,99.90
2022-11-08T16:29:19.401Z,99.90
2022-11-08T16:31:46.234Z,99.90
2022-11-08T16:34:12.989Z,99.90
2022-11-08T16:36:39.704Z,99.90
2022-11-08T16:39:14.120Z,99.90
2022-11-08T16:41:42.928Z,99.90
2022-11-08T16:44:11.043Z,99.90
2022-11-08T16:46:37.845Z,99.90
2022-11-08T16:49:07.130Z,99.90
2022-11-08T16:52:31.042Z,99.90
2022-11-08T16:54:57.802Z,99.90
2022-11-08T16:57:39.846Z,99.90
2022-11-08T17:00:08.113Z,99.90
2022-11-08T17:02:37.653Z,99.90
2022-11-08T17:05:05.044Z,99.90
2022-11-08T17:07:32.170Z,99.90
2022-11-08T17:09:58.879Z,99.90
2022-11-08T17:12:25.919Z,99.90
2022-11-08T17:14:53.251Z,99.90
2022-11-08T17:17:19.887Z,99.90
2022-11-08T17:19:46.539Z,99.90
2022-11-08T17:22:13.166Z,99.90
2022-11-08T17:24:39.867Z,99.90
2022-11-08T17:27:06.670Z,99.90
2022-11-08T17:29:33.302Z,99.90
2022-11-08T17:31:59.972Z,99.90
2022-11-08T17:34:26.615Z,99.90
2022-11-08T17:36:53.262Z,99.90
2022-11-08T17:39:19.965Z,99.90
2022-11-08T17:41:46.825Z,99.90
2022-11-08T17:44:14.302Z,99.90
2022-11-08T17:46:41.027Z,99.90
2022-11-08T17:49:08.705Z,99.90
2022-11-08T17:51:36.544Z,99.90
2022-11-08T17:54:03.421Z,99.90
2022-11-08T17:56:30.108Z,99.90
2022-11-08T17:58:56.745Z,99.90
2022-11-08T18:01:23.565Z,99.90
2022-11-08T18:03:50.594Z,99.90
2022-11-08T18:06:17.249Z,99.90
2022-11-08T18:08:43.970Z,99.90
2022-11-08T18:11:10.850Z,99.90
2022-11-08T18:13:37.580Z,99.90
2022-11-08T18:16:09.766Z,99.90
2022-11-08T18:18:37.971Z,99.90
2022-11-08T18:21:06.047Z,99.90
2022-11-08T18:23:32.898Z,99.90
2022-11-08T18:26:00.095Z,99.90
2022-11-08T18:28:26.874Z,99.90
2022-11-08T18:30:53.859Z,99.90
2022-11-08T18:33:21.731Z,99.90
2022-11-08T18:35:48.695Z,99.90
2022-11-08T18:38:15.376Z,99.90
2022-11-08T18:40:45.658Z,99.90
2022-11-08T18:43:12.312Z,99.90
2022-11-08T18:45:39.023Z,99.90
2022-11-08T18:48:06.102Z,99.90
2022-11-08T18:50:32.884Z,99.90
2022-11-08T18:53:03.251Z,99.90
2022-11-08T18:55:31.534Z,99.90
2022-11-08T18:57:58.284Z,99.90
2022-11-08T19:00:25.120Z,99.90
2022-11-08T19:02:51.809Z,99.90
2022-11-08T19:05:18.474Z,99.90
2022-11-08T19:07:45.142Z,99.90
2022-11-08T19:10:11.819Z,99.90
2022-11-08T19:12:38.439Z,99.90
2022-11-08T19:15:05.353Z,99.90
2022-11-08T19:17:32.926Z,99.90
2022-11-08T19:19:59.587Z,99.90
2022-11-08T19:22:26.251Z,99.90
2022-11-08T19:24:52.910Z,99.90
2022-11-08T19:27:20.458Z,99.90
2022-11-08T19:29:47.204Z,99.90
2022-11-08T19:32:13.842Z,99.90
2022-11-08T19:34:41.359Z,99.90
2022-11-08T19:37:08.072Z,99.90
2022-11-08T19:39:34.785Z,99.90
2022-11-08T19:42:01.442Z,99.90
2022-11-08T19:44:28.166Z,99.90
2022-11-08T19:46:54.870Z,99.90
2022-11-08T19:49:25.378Z,99.90
2022-11-08T19:51:52.739Z,99.90
2022-11-08T19:54:19.547Z,99.90
2022-11-08T19:59:33.707Z,99.90
2022-11-08T20:02:00.576Z,99.90
2022-11-08T20:04:27.379Z,99.90
2022-11-08T20:06:54.165Z,99.90
2022-11-08T20:09:24.629Z,99.90
2022-11-08T20:11:55.197Z,99.90
2022-11-08T20:14:21.939Z,99.90
2022-11-08T20:16:53.196Z,99.90
2022-11-08T20:19:20.722Z,99.90
2022-11-08T20:21:47.472Z,99.90
2022-11-08T20:24:15.066Z,99.90
2022-11-08T20:26:41.936Z,99.90
2022-11-08T20:29:09.086Z,99.90
2022-11-08T20:31:36.501Z,99.90
2022-11-08T20:34:05.904Z,99.90
2022-11-08T20:36:35.459Z,99.90
2022-11-08T20:39:06.836Z,99.90
2022-11-08T20:41:35.456Z,99.90
2022-11-08T20:44:02.556Z,99.90
2022-11-08T20:46:29.614Z,99.90
2022-11-08T20:49:00.101Z,99.90
2022-11-08T20:51:28.145Z,99.90
2022-11-08T20:53:55.847Z,99.90
2022-11-08T20:56:23.774Z,99.90
2022-11-08T20:58:51.582Z,99.90
2022-11-08T21:01:21.040Z,99.90
2022-11-08T21:03:48.098Z,99.90
2022-11-08T21:06:18.228Z,99.90
2022-11-08T21:09:09.938Z,99.90
2022-11-08T21:11:34.659Z,99.90
2022-11-08T21:14:02.501Z,99.90
2022-11-08T21:16:30.909Z,99.90
2022-11-08T21:19:01.937Z,99.90
2022-11-08T21:21:29.015Z,99.90
2022-11-08T21:23:55.673Z,99.90
2022-11-08T21:26:23.037Z,99.90
2022-11-08T21:28:49.929Z,99.90
2022-11-08T21:31:17.187Z,99.90
2022-11-08T21:33:43.915Z,99.90
2022-11-08T21:36:11.028Z,99.90
2022-11-08T21:38:39.017Z,99.90
2022-11-08T21:41:07.836Z,99.90
2022-11-08T21:43:39.475Z,99.90
2022-11-08T21:46:18.521Z,99.90
2022-11-08T21:48:45.974Z,99.90
2022-11-08T21:51:13.391Z,99.90
2022-11-08T21:53:49.392Z,99.90
2022-11-08T21:56:19.440Z,99.90
2022-11-08T21:58:46.096Z,99.90
2022-11-08T22:01:12.920Z,99.90
2022-11-08T22:03:39.577Z,99.90
2022-11-08T22:06:06.888Z,99.90
2022-11-08T22:08:33.523Z,99.90
2022-11-08T22:11:00.243Z,99.90
2022-11-08T22:13:26.904Z,99.90
2022-11-08T22:15:53.561Z,99.90
2022-11-08T22:18:31.113Z,99.90
2022-11-08T22:21:25.644Z,99.90
2022-11-08T22:23:52.296Z,99.90
2022-11-08T22:26:18.998Z,99.90
2022-11-08T22:28:45.631Z,99.90
2022-11-08T22:31:12.333Z,99.90
2022-11-08T22:33:38.938Z,99.90
2022-11-08T22:36:05.837Z,99.90
2022-11-08T22:38:32.747Z,99.90
2022-11-08T22:40:59.404Z,99.90
2022-11-08T22:43:26.016Z,99.90
2022-11-08T22:45:52.694Z,99.90
2022-11-08T22:48:19.711Z,99.90
2022-11-08T22:50:47.702Z,99.90
2022-11-08T22:53:14.337Z,99.90
2022-11-08T22:55:41.185Z,99.90
2022-11-08T22:58:07.903Z,99.90
2022-11-08T23:00:34.547Z,99.90
2022-11-08T23:03:01.151Z,99.90
2022-11-08T23:05:27.891Z,99.90
2022-11-08T23:07:54.926Z,99.90
2022-11-08T23:10:21.596Z,99.90
2022-11-08T23:13:06.717Z,99.90
2022-11-08T23:15:54.665Z,99.90
2022-11-08T23:18:22.443Z,99.90
2022-11-08T23:21:07.949Z,99.90
2022-11-08T23:23:53.444Z,99.90
2022-11-08T23:26:40.093Z,99.90
2022-11-08T23:29:25.268Z,99.90
2022-11-08T23:31:51.918Z,99.90
2022-11-08T23:34:18.581Z,99.90
2022-11-08T23:36:45.229Z,99.90
2022-11-08T23:39:11.888Z,99.90
2022-11-08T23:41:57.283Z,99.90
2022-11-08T23:44:24.079Z,99.90
2022-11-08T23:46:56.008Z,99.90
2022-11-08T23:49:23.092Z,99.90
2022-11-08T23:51:49.903Z,99.90
2022-11-08T23:54:16.907Z,99.90
2022-11-08T23:56:44.491Z,99.90
2022-11-08T23:59:12.331Z,99.90
